Time;durP1;ratioP1;P1;durP2;ratioP2;P2;SDS_P1;SDS_P2;PMS_P1;PMS_P2;Temp;Humidity;BMP_temperature;BMP_pressure;BME280_temperature;BME280_humidity;BME280_pressure;Samples;Min_cycle;Max_cycle;Signal;HPM_P1;HPM_P2
2023/10/01 00:01:32;;;;;;;;;;;;;;;;;;5044701;28;19945;-63
2023/10/01 00:03:58;;;;;;;;;;;;;;;;;;5047903;28;20806;-62
2023/10/01 00:06:25;;;;;;;;;;;;;;;;;;5046956;28;19966;-63
2023/10/01 00:08:53;;;;;;;;;;;;;;;;;;5038469;28;20356;-62
2023/10/01 00:11:19;;;;;;;;;;;;;;;;;;5036346;28;19928;-63
2023/10/01 00:13:45;;;;;;;;;;;;;;;;;;5045281;28;19960;-63
2023/10/01 00:16:11;;;;;;;;;;;;;;;;;;5036552;28;20365;-60
2023/10/01 00:18:37;;;;;;;;;;;;;;;;;;5044586;28;19917;-63
2023/10/01 00:21:03;;;;;;;;;;;;;;;;;;5046213;28;19996;-62
2023/10/01 00:23:29;;;;;;;;;;;;;;;;;;5054240;28;20334;-63
2023/10/01 00:25:57;;;;;;;;;;;;;;;;;;5061512;28;19944;-63
2023/10/01 00:28:23;;;;;;;;;;;;;;;;;;5059536;28;19913;-61
2023/10/01 00:30:49;;;;;;;;;;;;;;;;;;5062571;28;20159;-63
2023/10/01 00:33:15;;;;;;;;;;;;;;;;;;5067089;28;19913;-63
2023/10/01 00:35:41;;;;;;;;;;;;;;;;;;5054921;28;19920;-61
2023/10/01 00:38:07;;;;;;;;;;;;;;;;;;5049203;28;20383;-62
2023/10/01 00:40:33;;;;;;;;;;;;;;;;;;5047193;28;19921;-58
2023/10/01 00:43:00;;;;;;;;;;;;;;;;;;5049022;28;20028;-59
2023/10/01 00:45:26;;;;;;;;;;;;;;;;;;5050292;28;19952;-59
2023/10/01 00:47:51;;;;;;;;;;;;;;;;;;5052166;28;19967;-59
2023/10/01 00:50:21;;;;;;;;;;;;;;;;;;5045422;28;19945;-59
2023/10/01 00:52:47;;;;;;;;;;;;;;;;;;5027924;28;19913;-61
2023/10/01 00:55:13;;;;;;;;;;;;;;;;;;5048687;28;19948;-62
2023/10/01 00:57:39;;;;;;;;;;;;;;;;;;5044241;28;20219;-60
2023/10/01 01:00:05;;;;;;;;;;;;;;;;;;5046898;28;19951;-61
2023/10/01 01:02:37;;;;;;;;;;;;;;;;;;5046530;28;19952;-60
2023/10/01 01:05:06;;;;;;;;;;;;;;;;;;5051927;28;20277;-60
2023/10/01 01:07:32;;;;;;;;;;;;;;;;;;5047604;28;19917;-61
2023/10/01 01:10:01;;;;;;;;;;;;;;;;;;5046082;28;19923;-60
2023/10/01 01:12:27;;;;;;;;;;;;;;;;;;5046339;28;19956;-60
2023/10/01 01:14:54;;;;;;;;;;;;;;;;;;5051471;28;19923;-60
2023/10/01 01:17:21;;;;;;;;;;;;;;;;;;5047049;28;19920;-62
2023/10/01 01:19:47;;;;;;;;;;;;;;;;;;5052443;28;19997;-60
2023/10/01 01:22:23;;;;;;;;;;;;;;;;;;5051547;28;20289;-61
2023/10/01 01:24:50;;;;;;;;;;;;;;;;;;5052217;28;19925;-61
2023/10/01 01:27:16;;;;;;;;;;;;;;;;;;5046031;28;19912;-61
2023/10/01 01:29:44;;;;;;;;;;;;;;;;;;5045529;28;19975;-60
2023/10/01 01:32:13;;;;;;;;;;;;;;;;;;5051246;28;20007;-60
2023/10/01 01:34:40;;;;;;;;;;;;;;;;;;5051159;28;19921;-61
2023/10/01 01:37:06;;;;;;;;;;;;;;;;;;5051725;28;19964;-61
2023/10/01 01:39:35;;;;;;;;;;;;;;;;;;5043268;28;19916;-60
2023/10/01 01:42:02;;;;;;;;;;;;;;;;;;5045985;28;19913;-60
2023/10/01 01:44:30;;;;;;;;;;;;;;;;;;5043162;28;20015;-61
2023/10/01 01:47:00;;;;;;;;;;;;;;;;;;5046882;28;19919;-60
2023/10/01 01:49:26;;;;;;;;;;;;;;;;;;5045854;28;20417;-60
2023/10/01 01:51:59;;;;;;;;;;;;;;;;;;5049426;28;19995;-61
2023/10/01 01:54:26;;;;;;;;;;;;;;;;;;5039939;28;20429;-62
2023/10/01 01:56:52;;;;;;;;;;;;;;;;;;5054505;28;19982;-62
2023/10/01 01:59:21;;;;;;;;;;;;;;;;;;5040879;28;19937;-61
2023/10/01 02:01:47;;;;;;;;;;;;;;;;;;5039979;28;19998;-61
2023/10/01 02:04:13;;;;;;;;;;;;;;;;;;5041494;28;19970;-61
2023/10/01 02:06:38;;;;;;;;;;;;;;;;;;5041536;28;20428;-60
2023/10/01 02:09:12;;;;;;;;;;;;;;;;;;5037689;28;19927;-60
2023/10/01 02:11:38;;;;;;;;;;;;;;;;;;5050109;28;20335;-61
2023/10/01 02:14:05;;;;;;;;;;;;;;;;;;5045152;28;20004;-60
2023/10/01 02:16:35;;;;;;;;;;;;;;;;;;5042270;28;19920;-61
2023/10/01 02:21:43;;;;;;;;;;;;;;;;;;5046289;28;19959;-60
2023/10/01 02:24:11;;;;;;;;;;;;;;;;;;5045791;28;20296;-61
2023/10/01 02:26:37;;;;;;;;;;;;;;;;;;5049545;28;19924;-61
2023/10/01 02:29:03;;;;;;;;;;;;;;;;;;5043956;28;19941;-60
2023/10/01 02:31:34;;;;;;;;;;;;;;;;;;5048522;28;20284;-60
2023/10/01 02:34:00;;;;;;;;;;;;;;;;;;5052425;28;20019;-61
2023/10/01 02:36:26;;;;;;;;;;;;;;;;;;5049063;28;19971;-61
2023/10/01 02:38:55;;;;;;;;;;;;;;;;;;5047262;28;20372;-60
2023/10/01 02:41:25;;;;;;;;;;;;;;;;;;5044034;28;19920;-60
2023/10/01 02:43:51;;;;;;;;;;;;;;;;;;5042981;28;19925;-61
2023/10/01 02:46:26;;;;;;;;;;;;;;;;;;5047552;28;19913;-60
2023/10/01 02:48:52;;;;;;;;;;;;;;;;;;5050313;28;20372;-60
2023/10/01 02:51:32;;;;;;;;;;;;;;;;;;5049033;28;19959;-60
2023/10/01 02:54:03;;;;;;;;;;;;;;;;;;5047085;28;19948;-61
2023/10/01 02:56:32;;;;;;;;;;;;;;;;;;5045946;28;19935;-59
2023/10/01 02:59:07;;;;;;;;;;;;;;;;;;5048336;28;20012;-61
2023/10/01 03:01:34;;;;;;;;;;;;;;;;;;5050206;28;19912;-62
2023/10/01 03:04:05;;;;;;;;;;;;;;;;;;5050365;28;19931;-62
2023/10/01 03:06:33;;;;;;;;;;;;;;;;;;5045308;28;19999;-62
2023/10/01 03:11:25;;;;;;;;;;;;;;;;;;5045178;28;20320;-63
2023/10/01 03:13:54;;;;;;;;;;;;;;;;;;5048804;28;19970;-62
2023/10/01 03:19:13;;;;;;;;;;;;;;;;;;5053861;28;20350;-62
2023/10/01 03:24:29;;;;;;;;;;;;;;;;;;5042892;28;20015;-62
2023/10/01 03:26:57;;;;;;;;;;;;;;;;;;5045685;28;19920;-61
2023/10/01 03:29:34;;;;;;;;;;;;;;;;;;5049335;28;19924;-62
2023/10/01 03:32:26;;;;;;;;;;;;;;;;;;5038621;28;19924;-62
2023/10/01 03:34:46;;;;;;;;;;;;;;;;;;5041691;28;19939;-62
2023/10/01 03:37:19;;;;;;;;;;;;;;;;;;5043374;28;19919;-62
2023/10/01 03:39:46;;;;;;;;;;;;;;;;;;5050457;28;19913;-62
2023/10/01 03:42:17;;;;;;;;;;;;;;;;;;5046837;28;19913;-62
2023/10/01 03:44:59;;;;;;;;;;;;;;;;;;5051926;28;19917;-61
2023/10/01 03:47:26;;;;;;;;;;;;;;;;;;5047007;28;19958;-62
2023/10/01 03:49:54;;;;;;;;;;;;;;;;;;5041225;28;19913;-62
2023/10/01 03:52:29;;;;;;;;;;;;;;;;;;5048999;28;20369;-62
2023/10/01 03:57:24;;;;;;;;;;;;;;;;;;5047059;28;20403;-62
2023/10/01 03:59:53;;;;;;;;;;;;;;;;;;5051717;28;19956;-62
2023/10/01 04:08:01;;;;;;;;;;;;;;;;;;5045281;28;20288;-61
2023/10/01 04:13:11;;;;;;;;;;;;;;;;;;5051823;28;20339;-60
2023/10/01 04:15:41;;;;;;;;;;;;;;;;;;5034296;28;19921;-60
2023/10/01 04:18:19;;;;;;;;;;;;;;;;;;5053517;28;19921;-60
2023/10/01 04:20:48;;;;;;;;;;;;;;;;;;5030268;28;19921;-59
2023/10/01 04:23:21;;;;;;;;;;;;;;;;;;5037778;28;20291;-59
2023/10/01 04:25:51;;;;;;;;;;;;;;;;;;5052772;28;20019;-59
2023/10/01 04:28:18;;;;;;;;;;;;;;;;;;5050817;28;19917;-59
2023/10/01 04:30:45;;;;;;;;;;;;;;;;;;5048194;28;19917;-59
2023/10/01 04:33:17;;;;;;;;;;;;;;;;;;5047965;28;19917;-59
2023/10/01 04:35:51;;;;;;;;;;;;;;;;;;5049550;28;19936;-60
2023/10/01 04:38:18;;;;;;;;;;;;;;;;;;5052614;28;19913;-59
2023/10/01 04:40:46;;;;;;;;;;;;;;;;;;5050186;28;19966;-59
2023/10/01 04:43:16;;;;;;;;;;;;;;;;;;5052468;28;19979;-58
2023/10/01 04:45:44;;;;;;;;;;;;;;;;;;5048358;28;19914;-59
2023/10/01 04:48:15;;;;;;;;;;;;;;;;;;5053255;28;19920;-59
2023/10/01 04:50:42;;;;;;;;;;;;;;;;;;5053057;28;19971;-58
2023/10/01 04:53:09;;;;;;;;;;;;;;;;;;5040877;28;19917;-59
2023/10/01 04:55:41;;;;;;;;;;;;;;;;;;5050615;28;20015;-59
2023/10/01 04:58:07;;;;;;;;;;;;;;;;;;5052254;28;19913;-58
2023/10/01 05:00:34;;;;;;;;;;;;;;;;;;5038402;28;20002;-60
2023/10/01 05:03:03;;;;;;;;;;;;;;;;;;5052800;28;20390;-58
2023/10/01 05:05:28;;;;;;;;;;;;;;;;;;5054012;28;19912;-58
2023/10/01 05:07:55;;;;;;;;;;;;;;;;;;5053300;28;19912;-58
2023/10/01 05:10:21;;;;;;;;;;;;;;;;;;5040382;28;20281;-58
2023/10/01 05:12:47;;;;;;;;;;;;;;;;;;5050046;28;19917;-58
2023/10/01 05:15:24;;;;;;;;;;;;;;;;;;5050428;28;19923;-59
2023/10/01 05:17:50;;;;;;;;;;;;;;;;;;5052736;28;19925;-59
2023/10/01 05:20:16;;;;;;;;;;;;;;;;;;5045328;28;20000;-61
2023/10/01 05:22:51;;;;;;;;;;;;;;;;;;5046828;28;20460;-60
2023/10/01 05:25:18;;;;;;;;;;;;;;;;;;5053385;28;20556;-60
2023/10/01 05:27:45;;;;;;;;;;;;;;;;;;5051012;28;19921;-60
2023/10/01 05:30:34;;;;;;;;;;;;;;;;;;5044458;28;20337;-61
2023/10/01 05:32:58;;;;;;;;;;;;;;;;;;5048577;28;20371;-61
2023/10/01 05:35:24;;;;;;;;;;;;;;;;;;5044533;28;19927;-62
2023/10/01 05:37:50;;;;;;;;;;;;;;;;;;5050427;28;20005;-61
2023/10/01 05:40:16;;;;;;;;;;;;;;;;;;5047959;28;20380;-61
2023/10/01 05:42:44;;;;;;;;;;;;;;;;;;5051613;28;20007;-62
2023/10/01 05:45:18;;;;;;;;;;;;;;;;;;5050056;28;19921;-61
2023/10/01 05:47:54;;;;;;;;;;;;;;;;;;5046650;28;19917;-62
2023/10/01 05:50:22;;;;;;;;;;;;;;;;;;5047873;28;19920;-61
2023/10/01 05:52:50;;;;;;;;;;;;;;;;;;5043496;28;19967;-61
2023/10/01 05:55:16;;;;;;;;;;;;;;;;;;5052846;28;19920;-62
2023/10/01 05:57:42;;;;;;;;;;;;;;;;;;5047501;28;19956;-62
2023/10/01 06:00:17;;;;;;;;;;;;;;;;;;5047674;28;20002;-62
2023/10/01 06:02:46;;;;;;;;;;;;;;;;;;5048456;28;19913;-61
2023/10/01 06:05:32;;;;;;;;;;;;;;;;;;5047404;28;19920;-61
2023/10/01 06:07:58;;;;;;;;;;;;;;;;;;5048693;28;19975;-62
2023/10/01 06:10:26;;;;;;;;;;;;;;;;;;5044379;28;19964;-61
2023/10/01 06:12:52;;;;;;;;;;;;;;;;;;5047533;28;19920;-62
2023/10/01 06:15:20;;;;;;;;;;;;;;;;;;5039609;28;19982;-62
2023/10/01 06:17:46;;;;;;;;;;;;;;;;;;5051675;28;20039;-61
2023/10/01 06:20:23;;;;;;;;;;;;;;;;;;5051543;28;19917;-62
2023/10/01 06:22:49;;;;;;;;;;;;;;;;;;5050912;28;19924;-61
2023/10/01 06:25:15;;;;;;;;;;;;;;;;;;5046671;28;19919;-60
2023/10/01 06:27:41;;;;;;;;;;;;;;;;;;5047119;28;19966;-62
2023/10/01 06:30:08;;;;;;;;;;;;;;;;;;5049627;28;19941;-60
2023/10/01 06:32:36;;;;;;;;;;;;;;;;;;5046988;28;19912;-62
2023/10/01 06:35:02;;;;;;;;;;;;;;;;;;5046459;28;19913;-62
2023/10/01 06:37:50;;;;;;;;;;;;;;;;;;5047791;28;19952;-62
2023/10/01 06:40:31;;;;;;;;;;;;;;;;;;5041584;28;19936;-61
2023/10/01 06:43:00;;;;;;;;;;;;;;;;;;5046637;28;19935;-59
2023/10/01 06:45:41;;;;;;;;;;;;;;;;;;5050857;28;20402;-59
2023/10/01 06:48:09;;;;;;;;;;;;;;;;;;5050375;28;20322;-58
2023/10/01 06:50:35;;;;;;;;;;;;;;;;;;5049322;28;19971;-60
2023/10/01 06:53:03;;;;;;;;;;;;;;;;;;5040966;28;19987;-59
2023/10/01 06:55:30;;;;;;;;;;;;;;;;;;5044132;28;20468;-59
2023/10/01 06:58:00;;;;;;;;;;;;;;;;;;5043198;28;19920;-59
2023/10/01 07:00:30;;;;;;;;;;;;;;;;;;5043890;28;19928;-59
2023/10/01 07:03:13;;;;;;;;;;;;;;;;;;5047498;28;19966;-59
2023/10/01 07:05:39;;;;;;;;;;;;;;;;;;5045265;28;19928;-59
2023/10/01 07:08:05;;;;;;;;;;;;;;;;;;5039364;28;19952;-60
2023/10/01 07:10:31;;;;;;;;;;;;;;;;;;5043539;28;20000;-58
2023/10/01 07:13:04;;;;;;;;;;;;;;;;;;5046586;28;20377;-56
2023/10/01 07:15:32;;;;;;;;;;;;;;;;;;5041276;28;20407;-58
2023/10/01 07:17:58;;;;;;;;;;;;;;;;;;5048745;28;19920;-58
2023/10/01 07:20:25;;;;;;;;;;;;;;;;;;5049242;28;19952;-59
2023/10/01 07:22:51;;;;;;;;;;;;;;;;;;5048247;28;19921;-58
2023/10/01 07:25:37;;;;;;;;;;;;;;;;;;5041356;28;19920;-59
2023/10/01 07:28:03;;;;;;;;;;;;;;;;;;5040729;28;20311;-60
2023/10/01 07:30:45;;;;;;;;;;;;;;;;;;5047085;28;19948;-59
2023/10/01 07:33:12;;;;;;;;;;;;;;;;;;5047356;28;19921;-59
2023/10/01 07:35:38;;;;;;;;;;;;;;;;;;5044243;28;20023;-62
2023/10/01 07:38:06;;;;;;;;;;;;;;;;;;5043714;28;19913;-59
2023/10/01 07:40:52;;;;;;;;;;;;;;;;;;5044729;28;19935;-61
2023/10/01 07:43:18;;;;;;;;;;;;;;;;;;5039526;28;20012;-62
2023/10/01 07:45:55;;;;;;;;;;;;;;;;;;5049436;28;20365;-62
2023/10/01 07:48:22;;;;;;;;;;;;;;;;;;5048422;28;20354;-62
2023/10/01 07:50:48;;;;;;;;;;;;;;;;;;5048668;28;20376;-61
2023/10/01 07:53:14;;;;;;;;;;;;;;;;;;5050685;28;19972;-60
2023/10/01 07:55:41;;;;;;;;;;;;;;;;;;5031913;28;20112;-60
2023/10/01 08:01:36;;;;;;;;;;;;;;;;;;5035783;28;19921;-60
2023/10/01 08:03:55;;;;;;;;;;;;;;;;;;5045890;28;20376;-60
2023/10/01 08:06:29;;;;;;;;;;;;;;;;;;5050158;28;19960;-60
2023/10/01 08:08:57;;;;;;;;;;;;;;;;;;5046955;28;19920;-61
2023/10/01 08:14:08;;;;;;;;;;;;;;;;;;5055408;28;19919;-60
2023/10/01 08:16:47;;;;;;;;;;;;;;;;;;5046555;28;19952;-60
2023/10/01 08:19:13;;;;;;;;;;;;;;;;;;5044979;28;19912;-61
2023/10/01 08:21:48;;;;;;;;;;;;;;;;;;5047103;28;19912;-60
2023/10/01 08:24:18;;;;;;;;;;;;;;;;;;5049145;28;19963;-60
2023/10/01 08:26:44;;;;;;;;;;;;;;;;;;5044704;28;19916;-60
2023/10/01 08:29:14;;;;;;;;;;;;;;;;;;5050447;28;19913;-60
2023/10/01 08:34:24;;;;;;;;;;;;;;;;;;5048120;28;20337;-60
2023/10/01 08:36:54;;;;;;;;;;;;;;;;;;5042119;28;20391;-60
2023/10/01 08:39:22;;;;;;;;;;;;;;;;;;5048777;28;19917;-60
2023/10/01 08:41:51;;;;;;;;;;;;;;;;;;5046020;28;19923;-60
2023/10/01 08:44:19;;;;;;;;;;;;;;;;;;5046618;28;19967;-60
2023/10/01 08:46:45;;;;;;;;;;;;;;;;;;5046689;28;19921;-60
2023/10/01 08:49:23;;;;;;;;;;;;;;;;;;5041095;28;19917;-60
2023/10/01 08:51:49;;;;;;;;;;;;;;;;;;5048256;28;19970;-58
2023/10/01 08:54:15;;;;;;;;;;;;;;;;;;5047008;28;19920;-59
2023/10/01 08:56:44;;;;;;;;;;;;;;;;;;5046452;28;20005;-58
2023/10/01 08:59:23;;;;;;;;;;;;;;;;;;5049429;28;20488;-59
2023/10/01 09:01:52;;;;;;;;;;;;;;;;;;5050947;28;19913;-62
2023/10/01 09:04:29;;;;;;;;;;;;;;;;;;5050343;28;19921;-63
2023/10/01 09:07:04;;;;;;;;;;;;;;;;;;5052581;28;19917;-62
2023/10/01 09:09:51;;;;;;;;;;;;;;;;;;5052546;28;20377;-62
2023/10/01 09:12:18;;;;;;;;;;;;;;;;;;5040751;28;19921;-61
2023/10/01 09:14:46;;;;;;;;;;;;;;;;;;5045758;28;19937;-62
2023/10/01 09:17:12;;;;;;;;;;;;;;;;;;5046208;28;19916;-62
2023/10/01 09:19:42;;;;;;;;;;;;;;;;;;5045737;28;20007;-62
2023/10/01 09:22:08;;;;;;;;;;;;;;;;;;5041354;28;19963;-62
2023/10/01 09:24:38;;;;;;;;;;;;;;;;;;5045069;28;19925;-62
2023/10/01 09:27:09;;;;;;;;;;;;;;;;;;5049967;28;20313;-62
2023/10/01 09:29:43;;;;;;;;;;;;;;;;;;5047343;28;20303;-62
2023/10/01 09:32:11;;;;;;;;;;;;;;;;;;5041774;28;19930;-62
2023/10/01 09:34:46;;;;;;;;;;;;;;;;;;5042623;28;20504;-62
2023/10/01 09:37:12;;;;;;;;;;;;;;;;;;5048574;28;20312;-62
2023/10/01 09:39:38;;;;;;;;;;;;;;;;;;5047352;28;19956;-62
2023/10/01 09:42:19;;;;;;;;;;;;;;;;;;5046226;28;20029;-62
2023/10/01 09:44:48;;;;;;;;;;;;;;;;;;5047027;28;20266;-62
2023/10/01 09:47:14;;;;;;;;;;;;;;;;;;5041037;28;19979;-62
2023/10/01 09:49:41;;;;;;;;;;;;;;;;;;5043685;28;19955;-63
2023/10/01 09:52:07;;;;;;;;;;;;;;;;;;5047939;28;19925;-62
2023/10/01 09:54:41;;;;;;;;;;;;;;;;;;5037809;28;19945;-62
2023/10/01 09:57:08;;;;;;;;;;;;;;;;;;5047988;28;19913;-62
2023/10/01 09:59:39;;;;;;;;;;;;;;;;;;5040837;28;20225;-61
2023/10/01 10:02:06;;;;;;;;;;;;;;;;;;5044982;28;19995;-62
2023/10/01 10:04:34;;;;;;;;;;;;;;;;;;5044819;28;19932;-63
2023/10/01 10:07:00;;;;;;;;;;;;;;;;;;5044745;28;19913;-62
2023/10/01 10:09:26;;;;;;;;;;;;;;;;;;5046011;28;19935;-63
2023/10/01 10:11:52;;;;;;;;;;;;;;;;;;5048596;28;19948;-59
2023/10/01 10:14:25;;;;;;;;;;;;;;;;;;5049688;28;19945;-59
2023/10/01 10:16:56;;;;;;;;;;;;;;;;;;5049158;28;19944;-59
2023/10/01 10:19:22;;;;;;;;;;;;;;;;;;5050604;28;19913;-60
2023/10/01 10:21:49;;;;;;;;;;;;;;;;;;5048890;28;19936;-59
2023/10/01 10:24:15;;;;;;;;;;;;;;;;;;5044619;28;19967;-59
2023/10/01 10:26:43;;;;;;;;;;;;;;;;;;5040740;28;20338;-59
2023/10/01 10:29:12;;;;;;;;;;;;;;;;;;5039511;28;19928;-60
2023/10/01 10:31:38;;;;;;;;;;;;;;;;;;5049150;28;19932;-60
2023/10/01 10:34:19;;;;;;;;;;;;;;;;;;5047815;28;19956;-59
2023/10/01 10:36:53;;;;;;;;;;;;;;;;;;5041075;28;19923;-59
2023/10/01 10:39:35;;;;;;;;;;;;;;;;;;5051060;28;19982;-59
2023/10/01 10:42:02;;;;;;;;;;;;;;;;;;5044892;28;19917;-59
2023/10/01 10:44:28;;;;;;;;;;;;;;;;;;5042964;28;19983;-60
2023/10/01 10:46:59;;;;;;;;;;;;;;;;;;5050946;28;19913;-59
2023/10/01 10:49:25;;;;;;;;;;;;;;;;;;5048790;28;19909;-59
2023/10/01 10:51:52;;;;;;;;;;;;;;;;;;5048618;28;20020;-59
2023/10/01 10:54:23;;;;;;;;;;;;;;;;;;5047904;28;19913;-60
2023/10/01 10:56:52;;;;;;;;;;;;;;;;;;5044500;28;19928;-60
2023/10/01 10:59:19;;;;;;;;;;;;;;;;;;5043366;28;20300;-59
2023/10/01 11:01:47;;;;;;;;;;;;;;;;;;5050376;28;20557;-59
2023/10/01 11:04:14;;;;;;;;;;;;;;;;;;5046591;28;19968;-59
2023/10/01 11:06:42;;;;;;;;;;;;;;;;;;5046397;28;20404;-60
2023/10/01 11:09:16;;;;;;;;;;;;;;;;;;5047844;28;19943;-60
2023/10/01 11:11:48;;;;;;;;;;;;;;;;;;5039665;28;20444;-59
2023/10/01 11:14:17;;;;;;;;;;;;;;;;;;5041075;28;19913;-60
2023/10/01 11:16:44;;;;;;;;;;;;;;;;;;5050083;28;19932;-60
2023/10/01 11:19:13;;;;;;;;;;;;;;;;;;5066114;28;20300;-60
2023/10/01 11:21:39;;;;;;;;;;;;;;;;;;5042826;28;19944;-63
2023/10/01 11:24:05;;;;;;;;;;;;;;;;;;5040560;28;20470;-62
2023/10/01 11:26:31;;;;;;;;;;;;;;;;;;5046406;28;19960;-63
2023/10/01 11:29:11;;;;;;;;;;;;;;;;;;5044171;28;19913;-62
2023/10/01 11:31:38;;;;;;;;;;;;;;;;;;5043181;28;19912;-63
2023/10/01 11:34:06;;;;;;;;;;;;;;;;;;5040579;28;19966;-63
2023/10/01 11:36:35;;;;;;;;;;;;;;;;;;5046398;28;19920;-63
2023/10/01 11:39:03;;;;;;;;;;;;;;;;;;5048686;28;19959;-63
2023/10/01 11:41:38;;;;;;;;;;;;;;;;;;5046358;28;19913;-62
2023/10/01 11:44:05;;;;;;;;;;;;;;;;;;5043570;28;19924;-62
2023/10/01 11:49:16;;;;;;;;;;;;;;;;;;5039782;28;20047;-62
2023/10/01 11:51:45;;;;;;;;;;;;;;;;;;5041874;28;19920;-62
2023/10/01 11:54:13;;;;;;;;;;;;;;;;;;5050726;28;19936;-63
2023/10/01 11:56:40;;;;;;;;;;;;;;;;;;5048640;28;20369;-62
2023/10/01 11:59:08;;;;;;;;;;;;;;;;;;5045489;28;19959;-62
2023/10/01 12:01:47;;;;;;;;;;;;;;;;;;5043523;28;19913;-62
2023/10/01 12:04:16;;;;;;;;;;;;;;;;;;5048685;28;20001;-63
2023/10/01 12:06:43;;;;;;;;;;;;;;;;;;5041790;28;19956;-62
2023/10/01 12:09:09;;;;;;;;;;;;;;;;;;5045296;28;19975;-62
2023/10/01 12:11:38;;;;;;;;;;;;;;;;;;5045464;28;19948;-62
2023/10/01 12:14:08;;;;;;;;;;;;;;;;;;5049197;28;19991;-62
2023/10/01 12:16:34;;;;;;;;;;;;;;;;;;5047634;28;19916;-62
2023/10/01 12:21:45;;;;;;;;;;;;;;;;;;5038091;28;19951;-63
2023/10/01 12:24:14;;;;;;;;;;;;;;;;;;5042505;28;19929;-63
2023/10/01 12:26:40;;;;;;;;;;;;;;;;;;5042538;28;20015;-62
2023/10/01 12:29:12;;;;;;;;;;;;;;;;;;5046667;28;20413;-63
2023/10/01 12:31:40;;;;;;;;;;;;;;;;;;5046842;28;19920;-61
2023/10/01 12:34:06;;;;;;;;;;;;;;;;;;5041445;28;19924;-62
2023/10/01 12:36:33;;;;;;;;;;;;;;;;;;5050154;28;19927;-61
2023/10/01 12:41:47;;;;;;;;;;;;;;;;;;5044743;28;19963;-61
2023/10/01 12:44:27;;;;;;;;;;;;;;;;;;5043784;28;20603;-61
2023/10/01 12:46:54;;;;;;;;;;;;;;;;;;5052050;28;19959;-61
2023/10/01 12:49:20;;;;;;;;;;;;;;;;;;5049886;28;20007;-61
2023/10/01 12:51:53;;;;;;;;;;;;;;;;;;5049595;28;19917;-61
2023/10/01 12:54:19;;;;;;;;;;;;;;;;;;5051404;28;19928;-61
2023/10/01 12:56:48;;;;;;;;;;;;;;;;;;5047642;28;19960;-61
2023/10/01 12:59:18;;;;;;;;;;;;;;;;;;5043975;28;19935;-62
2023/10/01 13:01:50;;;;;;;;;;;;;;;;;;5053675;28;19913;-61
2023/10/01 13:04:22;;;;;;;;;;;;;;;;;;5049958;28;20008;-60
2023/10/01 13:06:48;;;;;;;;;;;;;;;;;;5048806;28;20304;-60
2023/10/01 13:12:15;;;;;;;;;;;;;;;;;;5041184;28;19961;-60
2023/10/01 13:14:41;;;;;;;;;;;;;;;;;;5053883;28;19948;-61
2023/10/01 13:17:19;;;;;;;;;;;;;;;;;;5052922;28;19948;-59
2023/10/01 13:19:47;;;;;;;;;;;;;;;;;;5046942;28;19998;-60
2023/10/01 13:22:13;;;;;;;;;;;;;;;;;;5046314;28;19924;-60
2023/10/01 13:24:39;;;;;;;;;;;;;;;;;;5047532;28;19975;-60
2023/10/01 13:27:13;;;;;;;;;;;;;;;;;;5039588;28;20470;-60
2023/10/01 13:29:39;;;;;;;;;;;;;;;;;;5044859;28;19928;-60
2023/10/01 13:32:15;;;;;;;;;;;;;;;;;;5050510;28;20456;-61
2023/10/01 13:34:54;;;;;;;;;;;;;;;;;;5051889;28;20492;-62
2023/10/01 13:37:42;;;;;;;;;;;;;;;;;;5056700;28;19921;-62
2023/10/01 13:40:14;;;;;;;;;;;;;;;;;;5037333;28;19917;-62
2023/10/01 14:10:15;;;;;;;;;;;;;;;;;;5046948;28;19928;-60
2023/10/01 14:12:41;;;;;;;;;;;;;;;;;;5046212;28;19950;-60
2023/10/01 14:15:20;;;;;;;;;;;;;;;;;;5050626;28;19913;-60
2023/10/01 14:17:52;;;;;;;;;;;;;;;;;;5045419;28;19913;-60
2023/10/01 14:20:37;;;;;;;;;;;;;;;;;;5048749;28;19912;-60
2023/10/01 14:23:03;;;;;;;;;;;;;;;;;;5038387;28;19929;-60
2023/10/01 14:25:30;;;;;;;;;;;;;;;;;;5035655;28;20423;-60
2023/10/01 14:27:59;;;;;;;;;;;;;;;;;;5048907;28;19912;-60
2023/10/01 14:30:25;;;;;;;;;;;;;;;;;;5046759;28;19913;-60
2023/10/01 14:32:51;;;;;;;;;;;;;;;;;;5049365;28;19994;-60
2023/10/01 14:35:17;;;;;;;;;;;;;;;;;;5043543;28;19920;-60
2023/10/01 14:37:55;;;;;;;;;;;;;;;;;;5047352;28;19955;-60
2023/10/01 14:40:21;;;;;;;;;;;;;;;;;;5050254;28;19963;-60
2023/10/01 14:42:47;;;;;;;;;;;;;;;;;;5044919;28;20062;-60
2023/10/01 14:45:13;;;;;;;;;;;;;;;;;;5051763;28;19916;-61
2023/10/01 14:47:42;;;;;;;;;;;;;;;;;;5057681;28;19912;-61
2023/10/01 14:50:08;;;;;;;;;;;;;;;;;;5049851;28;19973;-60
2023/10/01 14:52:40;;;;;;;;;;;;;;;;;;5041383;28;20352;-59
2023/10/01 14:55:06;;;;;;;;;;;;;;;;;;5042823;28;19917;-59
2023/10/01 14:57:34;;;;;;;;;;;;;;;;;;5039995;28;19944;-57
2023/10/01 15:00:01;;;;;;;;;;;;;;;;;;5040139;28;19913;-58
2023/10/01 15:02:28;;;;;;;;;;;;;;;;;;5046929;28;20365;-58
2023/10/01 15:04:54;;;;;;;;;;;;;;;;;;5045170;28;19917;-58
2023/10/01 15:07:22;;;;;;;;;;;;;;;;;;5043268;28;19996;-59
2023/10/01 15:09:49;;;;;;;;;;;;;;;;;;5044722;28;20004;-59
2023/10/01 15:12:26;;;;;;;;;;;;;;;;;;5035612;28;19921;-60
2023/10/01 15:14:53;;;;;;;;;;;;;;;;;;5040528;28;19960;-59
2023/10/01 15:17:19;;;;;;;;;;;;;;;;;;5045671;28;19923;-58
2023/10/01 15:19:49;;;;;;;;;;;;;;;;;;5044361;28;19917;-60
2023/10/01 15:22:18;;;;;;;;;;;;;;;;;;5048454;28;19944;-59
2023/10/01 15:24:44;;;;;;;;;;;;;;;;;;5041913;28;19928;-58
2023/10/01 15:27:10;;;;;;;;;;;;;;;;;;5043144;28;20348;-58
2023/10/01 15:29:36;;;;;;;;;;;;;;;;;;5044602;28;20889;-58
2023/10/01 15:32:14;;;;;;;;;;;;;;;;;;5048591;28;19944;-58
2023/10/01 15:34:40;;;;;;;;;;;;;;;;;;5041157;28;19983;-60
2023/10/01 15:37:11;;;;;;;;;;;;;;;;;;5050159;28;20365;-58
2023/10/01 15:39:37;;;;;;;;;;;;;;;;;;5047408;28;19917;-58
2023/10/01 15:42:13;;;;;;;;;;;;;;;;;;5042750;28;19967;-58
2023/10/01 15:44:49;;;;;;;;;;;;;;;;;;5046227;28;19943;-58
2023/10/01 15:50:06;;;;;;;;;;;;;;;;;;5046484;28;19954;-58
2023/10/01 15:52:37;;;;;;;;;;;;;;;;;;5041551;28;19999;-61
2023/10/01 15:55:03;;;;;;;;;;;;;;;;;;5046404;28;19916;-60
2023/10/01 15:57:32;;;;;;;;;;;;;;;;;;5044026;28;19920;-60
2023/10/01 15:59:57;;;;;;;;;;;;;;;;;;5047557;28;20007;-59
2023/10/01 16:02:24;;;;;;;;;;;;;;;;;;5046641;28;20460;-60
2023/10/01 16:04:59;;;;;;;;;;;;;;;;;;5042333;28;20015;-61
2023/10/01 16:07:25;;;;;;;;;;;;;;;;;;5053783;28;20357;-61
2023/10/01 16:09:51;;;;;;;;;;;;;;;;;;5050010;28;19913;-60
2023/10/01 16:12:16;;;;;;;;;;;;;;;;;;5048742;28;19944;-59
2023/10/01 16:14:44;;;;;;;;;;;;;;;;;;5052439;28;19983;-61
2023/10/01 16:17:17;;;;;;;;;;;;;;;;;;5052920;28;19923;-61
2023/10/01 16:19:46;;;;;;;;;;;;;;;;;;5035106;28;20357;-61
2023/10/01 16:22:20;;;;;;;;;;;;;;;;;;5053419;28;19920;-61
2023/10/01 16:24:46;;;;;;;;;;;;;;;;;;5048223;28;19928;-61
2023/10/01 16:27:12;;;;;;;;;;;;;;;;;;5052771;28;20404;-61
2023/10/01 16:29:43;;;;;;;;;;;;;;;;;;5043955;28;19961;-61
2023/10/01 16:32:16;;;;;;;;;;;;;;;;;;5044744;28;21581;-61
2023/10/01 16:34:42;;;;;;;;;;;;;;;;;;5042279;28;19913;-61
2023/10/01 16:37:09;;;;;;;;;;;;;;;;;;5050677;28;19948;-61
2023/10/01 16:39:38;;;;;;;;;;;;;;;;;;5051237;28;19924;-61
2023/10/01 16:42:07;;;;;;;;;;;;;;;;;;5045337;28;19921;-61
2023/10/01 16:44:36;;;;;;;;;;;;;;;;;;5050988;28;20412;-61
2023/10/01 16:47:04;;;;;;;;;;;;;;;;;;5051238;28;19959;-61
2023/10/01 16:49:30;;;;;;;;;;;;;;;;;;5046727;28;20357;-61
2023/10/01 16:51:57;;;;;;;;;;;;;;;;;;5048515;28;19912;-60
2023/10/01 16:54:27;;;;;;;;;;;;;;;;;;5049552;28;19920;-60
2023/10/01 16:56:58;;;;;;;;;;;;;;;;;;5048647;28;19952;-61
2023/10/01 16:59:24;;;;;;;;;;;;;;;;;;5047059;28;19920;-61
2023/10/01 17:01:55;;;;;;;;;;;;;;;;;;5043911;28;19956;-60
2023/10/01 17:04:21;;;;;;;;;;;;;;;;;;5044378;28;20258;-61
2023/10/01 17:06:50;;;;;;;;;;;;;;;;;;5045067;28;19963;-61
2023/10/01 17:09:34;;;;;;;;;;;;;;;;;;5041773;28;19917;-60
2023/10/01 17:12:00;;;;;;;;;;;;;;;;;;5044625;28;19916;-61
2023/10/01 17:14:26;;;;;;;;;;;;;;;;;;5044922;28;21800;-61
2023/10/01 17:16:52;;;;;;;;;;;;;;;;;;5043943;28;19913;-61
2023/10/01 17:19:32;;;;;;;;;;;;;;;;;;5042442;28;19960;-61
2023/10/01 17:21:59;;;;;;;;;;;;;;;;;;5052259;28;20015;-61
2023/10/01 17:24:26;;;;;;;;;;;;;;;;;;5041463;28;19924;-61
2023/10/01 17:26:52;;;;;;;;;;;;;;;;;;5046766;28;19971;-60
2023/10/01 17:29:20;;;;;;;;;;;;;;;;;;5050714;28;20392;-61
2023/10/01 17:31:48;;;;;;;;;;;;;;;;;;5050896;28;19913;-61
2023/10/01 17:34:23;;;;;;;;;;;;;;;;;;5048176;28;19933;-61
2023/10/01 17:36:51;;;;;;;;;;;;;;;;;;5053536;28;20288;-60
2023/10/01 17:39:20;;;;;;;;;;;;;;;;;;5043990;28;20364;-61
2023/10/01 17:41:46;;;;;;;;;;;;;;;;;;5049907;28;19917;-61
2023/10/01 17:44:15;;;;;;;;;;;;;;;;;;5048990;28;19956;-61
2023/10/01 17:46:41;;;;;;;;;;;;;;;;;;5039472;28;19960;-61
2023/10/01 17:49:07;;;;;;;;;;;;;;;;;;5044561;28;19965;-61
2023/10/01 17:51:33;;;;;;;;;;;;;;;;;;5049417;28;20011;-61
2023/10/01 17:54:05;;;;;;;;;;;;;;;;;;5042221;28;19927;-61
2023/10/01 17:56:35;;;;;;;;;;;;;;;;;;5048944;28;20019;-61
2023/10/01 17:59:01;;;;;;;;;;;;;;;;;;5043535;28;19948;-60
2023/10/01 18:01:27;;;;;;;;;;;;;;;;;;5048377;28;21740;-61
2023/10/01 18:03:54;;;;;;;;;;;;;;;;;;5047653;28;19999;-61
2023/10/01 18:06:22;;;;;;;;;;;;;;;;;;5047403;28;19913;-60
2023/10/01 18:08:51;;;;;;;;;;;;;;;;;;5046930;28;19924;-61
2023/10/01 18:11:18;;;;;;;;;;;;;;;;;;5037554;28;20080;-60